createdAt,value
2023-02-25T01:25:56.499Z,0.00
2023-02-25T01:26:56.402Z,0.00
2023-02-25T01:29:00.306Z,0.00
2023-02-25T01:30:00.218Z,0.00
2023-02-25T01:32:04.422Z,0.00
2023-02-25T01:33:04.111Z,0.00
2023-02-25T01:35:07.902Z,0.00
2023-02-25T01:36:07.821Z,0.00
2023-02-25T01:38:11.696Z,0.00
2023-02-25T01:39:11.611Z,0.00
2023-02-25T01:41:15.516Z,0.00
2023-02-25T01:42:15.453Z,0.00
2023-02-25T01:44:20.341Z,0.00
2023-02-25T01:45:20.265Z,0.00
2023-02-25T01:47:24.179Z,0.00
2023-02-25T01:48:24.069Z,0.00
2023-02-25T01:50:27.949Z,0.00
2023-02-25T01:51:27.884Z,0.00
2023-02-25T01:53:31.761Z,0.00
2023-02-25T01:54:31.674Z,0.00
2023-02-25T01:56:24.798Z,0.00
2023-02-25T01:57:24.405Z,0.00
2023-02-25T01:58:24.336Z,0.00
2023-02-25T01:59:24.318Z,0.00
2023-02-25T02:00:24.193Z,0.00
2023-02-25T02:01:24.149Z,0.00
2023-02-25T02:02:24.098Z,0.00
2023-02-25T02:03:23.984Z,0.00
2023-02-25T02:04:24.697Z,0.00
2023-02-25T02:05:23.882Z,0.00
2023-02-25T02:06:24.271Z,0.00
2023-02-25T02:07:23.703Z,0.00
2023-02-25T02:08:23.635Z,0.00
2023-02-25T02:09:23.565Z,0.00
2023-02-25T02:10:23.489Z,0.00
2023-02-25T02:11:23.430Z,0.00
2023-02-25T02:12:23.353Z,0.00
2023-02-25T02:13:23.283Z,0.00
2023-02-25T02:14:23.226Z,0.00
2023-02-25T02:15:23.153Z,0.00
2023-02-25T02:16:23.562Z,0.00
2023-02-25T02:17:23.099Z,0.00
2023-02-25T02:18:22.933Z,0.00
2023-02-25T02:19:22.864Z,0.00
2023-02-25T02:20:22.788Z,0.00
2023-02-25T02:21:22.726Z,0.00
2023-02-25T02:22:22.650Z,0.00
2023-02-25T02:23:22.583Z,0.00
2023-02-25T02:24:22.511Z,0.00
2023-02-25T02:25:22.440Z,0.00
2023-02-25T02:26:22.655Z,0.00
2023-02-25T02:27:22.302Z,0.00
2023-02-25T02:28:22.234Z,0.00
2023-02-25T02:29:22.158Z,0.00
2023-02-25T02:30:22.093Z,0.00
2023-02-25T02:31:22.043Z,0.00
2023-02-25T02:32:22.127Z,0.00
2023-02-25T02:33:21.879Z,0.00
2023-02-25T02:34:21.810Z,0.00
2023-02-25T02:35:21.754Z,0.00
2023-02-25T02:36:21.972Z,0.00
2023-02-25T02:37:21.602Z,0.00
2023-02-25T02:38:21.531Z,0.00
2023-02-25T02:39:21.467Z,0.00
2023-02-25T02:40:21.390Z,0.00
2023-02-25T02:41:21.324Z,0.00
2023-02-25T02:42:21.282Z,0.00
2023-02-25T02:43:21.184Z,0.00
2023-02-25T02:44:21.156Z,0.00
2023-02-25T02:45:21.044Z,0.00
2023-02-25T02:46:21.385Z,0.00
2023-02-25T02:47:20.898Z,0.00
2023-02-25T02:48:20.827Z,0.00
2023-02-25T02:49:20.759Z,0.00
2023-02-25T02:50:20.693Z,0.00
2023-02-25T02:51:20.620Z,0.00
2023-02-25T02:52:20.571Z,0.00
2023-02-25T02:53:20.482Z,0.00
2023-02-25T02:54:20.407Z,0.00
2023-02-25T02:55:20.335Z,0.00
2023-02-25T02:56:20.402Z,0.00
2023-02-25T02:57:20.196Z,0.00
2023-02-25T02:58:20.129Z,0.00
2023-02-25T02:59:20.090Z,0.00
2023-02-25T03:00:20.009Z,0.00
2023-02-25T03:01:20.026Z,0.00
2023-02-25T03:02:19.850Z,0.00
2023-02-25T03:03:19.783Z,0.00
2023-02-25T03:04:19.815Z,0.00
2023-02-25T03:05:19.637Z,0.00
2023-02-25T03:06:19.573Z,0.00
2023-02-25T03:07:19.498Z,0.00
2023-02-25T03:08:19.427Z,0.00
2023-02-25T03:09:19.356Z,0.00
2023-02-25T03:10:19.283Z,0.00
2023-02-25T03:11:19.219Z,0.00
2023-02-25T03:12:19.146Z,0.00
2023-02-25T03:13:19.074Z,0.00
2023-02-25T03:14:19.007Z,0.00
2023-02-25T03:15:18.939Z,0.00
2023-02-25T03:16:18.901Z,0.00
2023-02-25T03:17:18.796Z,0.00
2023-02-25T03:18:18.723Z,0.00
2023-02-25T03:19:18.655Z,0.00
2023-02-25T03:20:18.587Z,0.00
2023-02-25T03:21:18.518Z,0.00
2023-02-25T03:22:18.449Z,0.00
2023-02-25T03:23:18.384Z,0.00
2023-02-25T03:24:18.306Z,0.00
2023-02-25T03:25:18.240Z,0.00
2023-02-25T03:26:18.166Z,0.00
2023-02-25T03:27:18.101Z,0.00
2023-02-25T03:28:18.029Z,0.00
2023-02-25T03:29:17.980Z,0.00
2023-02-25T03:30:17.897Z,0.00
2023-02-25T03:31:17.859Z,0.00
2023-02-25T03:32:18.000Z,0.00
2023-02-25T03:33:17.687Z,0.00
2023-02-25T03:34:17.614Z,0.00
2023-02-25T03:35:17.546Z,0.00
2023-02-25T03:36:17.476Z,0.00
2023-02-25T03:37:17.411Z,0.00
2023-02-25T03:38:17.334Z,0.00
2023-02-25T03:39:17.281Z,0.00
2023-02-25T03:40:17.192Z,0.00
2023-02-25T03:41:17.125Z,0.00
2023-02-25T03:42:17.056Z,0.00
2023-02-25T03:43:16.985Z,0.00
2023-02-25T03:44:16.921Z,0.00
2023-02-25T03:45:16.844Z,0.00
2023-02-25T03:46:16.797Z,0.00
2023-02-25T03:47:16.703Z,0.00
2023-02-25T03:48:16.639Z,0.00
2023-02-25T03:49:16.563Z,0.00
2023-02-25T03:50:16.485Z,0.00
2023-02-25T03:51:16.420Z,0.00
2023-02-25T03:52:16.348Z,0.00
2023-02-25T03:53:16.282Z,0.00
2023-02-25T03:54:16.204Z,0.00
2023-02-25T03:55:16.133Z,0.00
2023-02-25T03:56:16.065Z,0.00
2023-02-25T03:57:16.001Z,0.00
2023-02-25T03:58:15.920Z,0.00
2023-02-25T03:59:15.864Z,0.00
2023-02-25T04:00:15.802Z,0.00
2023-02-25T04:01:17.127Z,0.00
2023-02-25T04:02:15.686Z,0.00
2023-02-25T04:03:15.568Z,0.00
2023-02-25T04:04:15.619Z,0.00
2023-02-25T04:05:15.447Z,0.00
2023-02-25T04:06:15.357Z,0.00
2023-02-25T04:07:15.295Z,0.00
2023-02-25T04:08:15.232Z,0.00
2023-02-25T04:09:15.147Z,0.00
2023-02-25T04:10:15.075Z,0.00
2023-02-25T04:11:15.004Z,0.00
2023-02-25T04:12:14.939Z,0.00
2023-02-25T04:13:14.868Z,0.00
2023-02-25T04:14:14.792Z,0.00
2023-02-25T04:15:14.757Z,0.00
2023-02-25T04:16:14.727Z,0.00
2023-02-25T04:17:14.583Z,0.00
2023-02-25T04:18:14.705Z,0.00
2023-02-25T04:19:14.445Z,0.00
2023-02-25T04:20:14.379Z,0.00
2023-02-25T04:21:14.303Z,0.00
2023-02-25T04:22:14.232Z,0.00
2023-02-25T04:23:14.160Z,0.00
2023-02-25T04:24:14.089Z,0.00
2023-02-25T04:25:14.022Z,0.00
2023-02-25T04:26:13.949Z,0.00
2023-02-25T04:27:13.893Z,0.00
2023-02-25T04:28:13.844Z,0.00
2023-02-25T04:29:13.755Z,0.00
2023-02-25T04:30:13.667Z,0.00
2023-02-25T04:31:13.759Z,0.00
2023-02-25T04:32:13.679Z,0.00
2023-02-25T04:33:13.458Z,0.00
2023-02-25T04:34:13.397Z,0.00
2023-02-25T04:35:13.328Z,0.00
2023-02-25T04:36:13.250Z,0.00
2023-02-25T04:37:13.176Z,0.00
2023-02-25T04:38:13.112Z,0.00
2023-02-25T04:39:13.051Z,0.00
2023-02-25T04:40:12.975Z,0.00
2023-02-25T04:41:12.937Z,0.00
2023-02-25T04:42:12.828Z,0.00
2023-02-25T04:43:12.770Z,0.00
2023-02-25T04:44:12.690Z,0.00
2023-02-25T04:45:12.614Z,0.00
2023-02-25T04:46:12.580Z,0.00
2023-02-25T04:47:12.475Z,0.00
2023-02-25T04:48:12.409Z,0.00
2023-02-25T04:49:12.334Z,0.00
2023-02-25T04:50:12.259Z,0.00
2023-02-25T04:51:12.197Z,0.00
2023-02-25T04:52:12.131Z,0.00
2023-02-25T04:53:12.052Z,0.00
2023-02-25T04:54:11.978Z,0.00
2023-02-25T04:55:11.926Z,0.00
2023-02-25T04:56:11.859Z,0.00
2023-02-25T04:57:11.777Z,0.00
2023-02-25T04:58:11.736Z,0.00
2023-02-25T04:59:11.632Z,0.00
2023-02-25T05:00:11.595Z,0.00
2023-02-25T05:01:11.492Z,0.00
2023-02-25T05:02:11.522Z,0.00
2023-02-25T05:03:11.349Z,0.00
2023-02-25T05:04:11.280Z,0.00
2023-02-25T05:05:11.311Z,0.00
2023-02-25T05:06:11.136Z,0.00
2023-02-25T05:07:11.067Z,0.00
2023-02-25T05:08:11.002Z,0.00
2023-02-25T05:09:10.926Z,0.00
2023-02-25T05:10:10.851Z,0.00
2023-02-25T05:11:10.792Z,0.00
2023-02-25T05:12:10.717Z,0.00
2023-02-25T05:13:10.647Z,0.00
2023-02-25T05:14:10.575Z,0.00
2023-02-25T05:15:10.502Z,0.00
2023-02-25T05:16:10.484Z,0.00
2023-02-25T05:17:10.359Z,0.00
2023-02-25T05:18:10.309Z,0.00
2023-02-25T05:19:10.219Z,0.00
2023-02-25T05:20:10.187Z,0.00
2023-02-25T05:21:10.085Z,0.00
2023-02-25T05:22:10.016Z,0.00
2023-02-25T05:23:09.937Z,0.00
2023-02-25T05:24:09.870Z,0.00
2023-02-25T05:25:09.796Z,0.00
2023-02-25T05:26:09.728Z,0.00
2023-02-25T05:27:09.653Z,0.00
2023-02-25T05:28:09.604Z,0.00
2023-02-25T05:29:09.511Z,0.00
2023-02-25T05:30:09.452Z,0.00
2023-02-25T05:31:09.552Z,0.00
2023-02-25T05:32:09.495Z,0.00
2023-02-25T05:33:09.316Z,0.00
2023-02-25T05:34:09.164Z,0.00
2023-02-25T05:35:09.087Z,0.00
2023-02-25T05:36:09.020Z,0.00
2023-02-25T05:37:08.949Z,0.00
2023-02-25T05:38:08.922Z,0.00
2023-02-25T05:39:08.806Z,0.00
2023-02-25T05:40:08.763Z,0.00
2023-02-25T05:41:08.675Z,0.00
2023-02-25T05:42:08.644Z,0.00
2023-02-25T05:43:08.525Z,4.00
2023-02-25T05:44:08.454Z,4.00
2023-02-25T05:45:08.416Z,0.00
2023-02-25T05:46:08.314Z,0.00
2023-02-25T05:47:08.299Z,4.00
2023-02-25T05:48:08.181Z,4.00
2023-02-25T05:49:08.145Z,4.00
2023-02-25T05:50:08.056Z,4.00
2023-02-25T05:51:07.976Z,4.00
2023-02-25T05:52:07.889Z,4.00
2023-02-25T05:53:07.824Z,8.00
2023-02-25T05:54:07.750Z,4.00
2023-02-25T05:55:07.683Z,4.00
2023-02-25T05:56:07.618Z,8.00
2023-02-25T05:57:07.540Z,12.00
2023-02-25T05:58:07.468Z,8.00
2023-02-25T05:59:07.412Z,12.00
2023-02-25T06:00:07.333Z,12.00
2023-02-25T06:01:07.252Z,12.00
2023-02-25T06:02:07.227Z,16.00
2023-02-25T06:03:07.210Z,12.00
2023-02-25T06:04:07.091Z,12.00
2023-02-25T06:05:06.971Z,16.00
2023-02-25T06:06:06.899Z,16.00
2023-02-25T06:07:06.834Z,20.00
2023-02-25T06:08:06.773Z,16.00
2023-02-25T06:09:06.686Z,20.00
2023-02-25T06:10:06.616Z,20.00
2023-02-25T06:11:06.553Z,20.00
2023-02-25T06:12:06.484Z,28.00
2023-02-25T06:13:06.410Z,28.00
2023-02-25T06:14:06.333Z,28.00
2023-02-25T06:15:06.261Z,32.00
2023-02-25T06:16:06.284Z,32.00
2023-02-25T06:17:06.126Z,36.00
2023-02-25T06:18:06.053Z,40.00
2023-02-25T06:19:05.978Z,40.00
2023-02-25T06:20:05.908Z,36.00
2023-02-25T06:21:05.835Z,48.00
2023-02-25T06:22:05.776Z,44.00
2023-02-25T06:23:05.693Z,44.00
2023-02-25T06:24:05.841Z,52.00
2023-02-25T06:25:05.555Z,52.00
2023-02-25T06:26:05.496Z,56.00
2023-02-25T06:27:05.413Z,52.00
2023-02-25T06:28:05.343Z,60.00
2023-02-25T06:29:05.302Z,56.00
2023-02-25T06:30:05.200Z,64.00
2023-02-25T06:31:05.215Z,68.00
2023-02-25T06:32:05.290Z,72.00
2023-02-25T06:33:04.996Z,72.00
2023-02-25T06:34:04.918Z,76.00
2023-02-25T06:35:04.853Z,72.00
2023-02-25T06:36:04.784Z,84.00
2023-02-25T06:37:04.705Z,84.00
2023-02-25T06:38:04.633Z,88.00
2023-02-25T06:39:04.563Z,100.00
2023-02-25T06:40:04.501Z,100.00
2023-02-25T06:41:04.421Z,104.00
2023-02-25T06:42:04.356Z,100.00
2023-02-25T06:43:04.291Z,100.00
2023-02-25T06:44:04.216Z,104.00
2023-02-25T06:45:04.141Z,112.00
2023-02-25T06:46:04.151Z,128.00
2023-02-25T06:47:04.083Z,140.00
2023-02-25T06:48:03.927Z,132.00
2023-02-25T06:49:03.856Z,132.00
2023-02-25T06:50:03.784Z,128.00
2023-02-25T06:51:03.720Z,136.00
2023-02-25T06:52:03.641Z,140.00
2023-02-25T06:53:03.573Z,144.00
2023-02-25T06:54:03.550Z,144.00
2023-02-25T06:55:03.427Z,164.00
2023-02-25T06:56:03.386Z,188.00
2023-02-25T06:57:03.288Z,220.00
2023-02-25T06:58:03.226Z,232.00
2023-02-25T06:59:03.160Z,264.00
2023-02-25T07:00:03.084Z,272.00
2023-02-25T07:01:03.043Z,300.00
2023-02-25T07:02:02.938Z,296.00
2023-02-25T07:03:02.861Z,296.00
2023-02-25T07:04:02.848Z,304.00
2023-02-25T07:05:02.719Z,304.00
2023-02-25T07:06:02.654Z,324.00
2023-02-25T07:07:02.584Z,312.00
2023-02-25T07:08:02.508Z,344.00
2023-02-25T07:09:02.432Z,396.00
2023-02-25T07:10:02.382Z,412.00
2023-02-25T07:11:02.294Z,432.00
2023-02-25T07:12:02.259Z,448.00
2023-02-25T07:13:02.153Z,472.00
2023-02-25T07:14:02.091Z,520.00
2023-02-25T07:15:02.018Z,612.00
2023-02-25T07:16:02.082Z,620.00
2023-02-25T07:17:01.874Z,632.00
2023-02-25T07:18:01.795Z,656.00
2023-02-25T07:19:01.730Z,672.00
2023-02-25T07:20:01.678Z,620.00
2023-02-25T07:21:01.583Z,624.00
2023-02-25T07:22:01.532Z,688.00
2023-02-25T07:23:01.442Z,692.00
2023-02-25T07:24:01.373Z,680.00
2023-02-25T07:25:01.366Z,692.00
2023-02-25T07:26:01.249Z,728.00
2023-02-25T07:27:01.155Z,712.00
2023-02-25T07:28:01.092Z,816.00
2023-02-25T07:29:01.018Z,844.00
2023-02-25T07:30:00.944Z,776.00
2023-02-25T07:31:01.009Z,812.00
2023-02-25T07:32:01.214Z,780.00
2023-02-25T07:33:00.772Z,792.00
2023-02-25T07:34:00.661Z,724.00
2023-02-25T07:35:00.588Z,760.00
2023-02-25T07:36:00.521Z,780.00
2023-02-25T07:37:00.457Z,820.00
2023-02-25T07:38:00.384Z,800.00
2023-02-25T07:39:00.310Z,764.00
2023-02-25T07:40:00.240Z,788.00
2023-02-25T07:41:00.174Z,912.00
2023-02-25T07:42:00.146Z,1064.00
2023-02-25T07:43:00.048Z,1128.00
2023-02-25T07:43:59.959Z,1264.00
2023-02-25T07:45:02.057Z,1332.00
2023-02-25T07:45:59.899Z,1416.00
2023-02-25T07:46:59.744Z,1412.00
2023-02-25T07:47:59.684Z,1396.00
2023-02-25T07:48:59.612Z,1432.00
2023-02-25T07:49:59.534Z,1416.00
2023-02-25T07:50:59.465Z,1288.00
2023-02-25T07:51:59.398Z,1300.00
2023-02-25T07:52:59.326Z,1320.00
2023-02-25T07:53:59.272Z,1212.00
2023-02-25T07:54:59.196Z,1308.00
2023-02-25T07:55:59.124Z,1224.00
2023-02-25T07:56:59.045Z,1248.00
2023-02-25T07:57:58.972Z,1272.00
2023-02-25T07:58:58.903Z,1236.00
2023-02-25T07:59:58.834Z,1232.00
2023-02-25T08:00:58.760Z,1152.00
2023-02-25T08:01:58.690Z,1152.00
2023-02-25T08:02:58.653Z,1152.00
2023-02-25T08:03:58.664Z,1052.00
2023-02-25T08:04:58.480Z,1012.00
2023-02-25T08:05:58.414Z,988.00
2023-02-25T08:06:58.377Z,936.00
2023-02-25T08:07:58.266Z,940.00
2023-02-25T08:08:58.192Z,916.00
2023-02-25T08:09:58.127Z,936.00
2023-02-25T08:10:58.084Z,956.00
2023-02-25T08:11:57.993Z,988.00
2023-02-25T08:12:57.912Z,924.00
2023-02-25T08:13:57.871Z,936.00
2023-02-25T08:14:57.868Z,1000.00
2023-02-25T08:15:57.739Z,1092.00
2023-02-25T08:16:57.634Z,1032.00
2023-02-25T08:17:57.567Z,1004.00
2023-02-25T08:18:57.491Z,1152.00
2023-02-25T08:19:57.424Z,1160.00
2023-02-25T08:20:57.359Z,1008.00
2023-02-25T08:21:57.280Z,1068.00
2023-02-25T08:22:57.221Z,1120.00
2023-02-25T08:23:57.142Z,1032.00
2023-02-25T08:24:57.068Z,1116.00
2023-02-25T08:25:56.998Z,1108.00
2023-02-25T08:26:56.930Z,1048.00
2023-02-25T08:27:56.878Z,1000.00
2023-02-25T08:28:56.785Z,1192.00
2023-02-25T08:29:56.715Z,1248.00
2023-02-25T08:30:56.747Z,1244.00
2023-02-25T08:31:56.804Z,1196.00
2023-02-25T08:32:56.552Z,1308.00
2023-02-25T08:33:56.438Z,1388.00
2023-02-25T08:34:56.361Z,1156.00
2023-02-25T08:35:56.297Z,1092.00
2023-02-25T08:36:56.230Z,1192.00
2023-02-25T08:37:56.161Z,1212.00
2023-02-25T08:38:56.084Z,1168.00
2023-02-25T08:39:56.016Z,1080.00
2023-02-25T08:40:55.939Z,1056.00
2023-02-25T08:41:55.866Z,1048.00
2023-02-25T08:42:55.797Z,1172.00
2023-02-25T08:43:55.749Z,1128.00
2023-02-25T08:44:55.657Z,1016.00
2023-02-25T08:45:55.584Z,1076.00
2023-02-25T08:46:55.676Z,1092.00
2023-02-25T08:47:55.447Z,932.00
2023-02-25T08:48:55.370Z,940.00
2023-02-25T08:49:55.337Z,904.00
2023-02-25T08:50:55.235Z,972.00
2023-02-25T08:51:55.195Z,1036.00
2023-02-25T08:52:55.087Z,1092.00
2023-02-25T08:53:55.021Z,1084.00
2023-02-25T08:54:54.946Z,1032.00
2023-02-25T08:55:54.898Z,1004.00
2023-02-25T08:56:54.825Z,1120.00
2023-02-25T08:57:54.739Z,1140.00
2023-02-25T08:58:54.661Z,1208.00
2023-02-25T08:59:54.606Z,1320.00
2023-02-25T09:00:54.601Z,1252.00
2023-02-25T09:01:54.458Z,1292.00
2023-02-25T09:02:54.385Z,1196.00
2023-02-25T09:03:54.322Z,1148.00
2023-02-25T09:04:54.330Z,1256.00
2023-02-25T09:05:54.165Z,1268.00
2023-02-25T09:06:54.130Z,1208.00
2023-02-25T09:07:54.035Z,1256.00
2023-02-25T09:08:53.973Z,1268.00
2023-02-25T09:09:53.886Z,1252.00
2023-02-25T09:10:53.818Z,1236.00
2023-02-25T09:11:53.745Z,1228.00
2023-02-25T09:12:53.680Z,1212.00
2023-02-25T09:13:53.603Z,1228.00
2023-02-25T09:14:53.535Z,1324.00
2023-02-25T09:15:53.466Z,1308.00
2023-02-25T09:16:53.520Z,1496.00
2023-02-25T09:17:53.332Z,1516.00
2023-02-25T09:18:53.256Z,1608.00
2023-02-25T09:19:53.183Z,1808.00
2023-02-25T09:20:53.157Z,1928.00
2023-02-25T09:21:53.044Z,1968.00
2023-02-25T09:22:52.991Z,1816.00
2023-02-25T09:23:52.991Z,1852.00
2023-02-25T09:24:52.830Z,2124.00
2023-02-25T09:25:52.767Z,2292.00
2023-02-25T09:26:52.695Z,2388.00
2023-02-25T09:27:52.621Z,2256.00
2023-02-25T09:28:52.549Z,2400.00
2023-02-25T09:29:52.481Z,2468.00
2023-02-25T09:30:52.446Z,2624.00
2023-02-25T09:31:52.551Z,2784.00
2023-02-25T09:32:52.376Z,2612.00
2023-02-25T09:33:52.201Z,2252.00
2023-02-25T09:34:52.135Z,2024.00
2023-02-25T09:35:52.062Z,1692.00
2023-02-25T09:36:52.002Z,1576.00
2023-02-25T09:37:51.917Z,1592.00
2023-02-25T09:38:51.909Z,1484.00
2023-02-25T09:39:51.784Z,1468.00
2023-02-25T09:40:51.734Z,1284.00
2023-02-25T09:41:53.410Z,1308.00
2023-02-25T09:42:51.577Z,1460.00
2023-02-25T09:43:51.499Z,1700.00
2023-02-25T09:44:51.433Z,1824.00
2023-02-25T09:45:51.455Z,2124.00
2023-02-25T09:46:51.298Z,2424.00
2023-02-25T09:47:51.374Z,2556.00
2023-02-25T09:48:51.170Z,2496.00
2023-02-25T09:49:51.079Z,2656.00
2023-02-25T09:50:51.011Z,2848.00
2023-02-25T09:51:50.942Z,2908.00
2023-02-25T09:52:50.878Z,2840.00
2023-02-25T09:53:50.800Z,2664.00
2023-02-25T09:54:50.746Z,2648.00
2023-02-25T09:55:50.667Z,2920.00
2023-02-25T09:56:50.611Z,3072.00
2023-02-25T09:57:50.530Z,3148.00
2023-02-25T09:58:50.461Z,3224.00
2023-02-25T09:59:50.389Z,3120.00
2023-02-25T10:00:50.333Z,2992.00
2023-02-25T10:01:50.256Z,2844.00
2023-02-25T10:02:50.464Z,2656.00
2023-02-25T10:03:50.108Z,2396.00
2023-02-25T10:04:50.044Z,2208.00
2023-02-25T10:05:49.979Z,2324.00
2023-02-25T10:06:49.903Z,2208.00
2023-02-25T10:07:49.833Z,2028.00
2023-02-25T10:08:49.764Z,2228.00
2023-02-25T10:09:49.710Z,2512.00
2023-02-25T10:10:49.643Z,2560.00
2023-02-25T10:11:49.556Z,2616.00
2023-02-25T10:12:49.493Z,2720.00
2023-02-25T10:13:49.415Z,2828.00
2023-02-25T10:14:49.348Z,2968.00
2023-02-25T10:15:52.758Z,3092.00
2023-02-25T10:16:49.213Z,3108.00
2023-02-25T10:17:49.144Z,3188.00
2023-02-25T10:18:49.067Z,3148.00
2023-02-25T10:19:49.009Z,2968.00
2023-02-25T10:20:48.932Z,2876.00
2023-02-25T10:21:48.860Z,2956.00
2023-02-25T10:22:48.792Z,2864.00
2023-02-25T10:23:48.728Z,2908.00
2023-02-25T10:24:48.663Z,3176.00
2023-02-25T10:25:48.580Z,3248.00
2023-02-25T10:26:48.514Z,3400.00
2023-02-25T10:27:48.447Z,3464.00
2023-02-25T10:28:48.378Z,3596.00
2023-02-25T10:29:48.311Z,3528.00
2023-02-25T10:30:48.448Z,3700.00
2023-02-25T10:31:48.336Z,3784.00
2023-02-25T10:32:48.157Z,3728.00
2023-02-25T10:33:48.027Z,3676.00
2023-02-25T10:34:47.964Z,3680.00
2023-02-25T10:35:47.894Z,3544.00
2023-02-25T10:36:47.820Z,3716.00
2023-02-25T10:37:47.757Z,3660.00
2023-02-25T10:38:47.690Z,3688.00
2023-02-25T10:39:47.615Z,3680.00
2023-02-25T10:40:47.552Z,3472.00
2023-02-25T10:41:47.480Z,3600.00
2023-02-25T10:42:47.411Z,3680.00
2023-02-25T10:43:47.343Z,3752.00
2023-02-25T10:44:47.276Z,3800.00
2023-02-25T10:45:47.263Z,3920.00
2023-02-25T10:46:47.137Z,4084.00
2023-02-25T10:47:47.067Z,4064.00
2023-02-25T10:48:47.017Z,3916.00
2023-02-25T10:49:46.928Z,3804.00
2023-02-25T10:50:46.859Z,4004.00
2023-02-25T10:51:46.793Z,4044.00
2023-02-25T10:52:46.746Z,4120.00
2023-02-25T10:53:46.663Z,4344.00
2023-02-25T10:54:46.591Z,4088.00
2023-02-25T10:55:46.520Z,3996.00
2023-02-25T10:56:46.462Z,4096.00
2023-02-25T10:57:46.397Z,3912.00
2023-02-25T10:58:46.317Z,3948.00
2023-02-25T10:59:46.250Z,3996.00
2023-02-25T11:00:46.179Z,3848.00
2023-02-25T11:01:46.153Z,3624.00
2023-02-25T11:02:46.109Z,3684.00
2023-02-25T11:03:45.974Z,3704.00
2023-02-25T11:04:45.928Z,3496.00
2023-02-25T11:05:45.842Z,3224.00
2023-02-25T11:06:45.774Z,2784.00
2023-02-25T11:07:45.710Z,2808.00
2023-02-25T11:08:45.640Z,3024.00
2023-02-25T11:09:45.571Z,3244.00
2023-02-25T11:10:45.529Z,3396.00
2023-02-25T11:11:45.446Z,3572.00
2023-02-25T11:12:45.378Z,2880.00
2023-02-25T11:13:45.319Z,2680.00
2023-02-25T11:14:45.234Z,2608.00
2023-02-25T11:15:46.688Z,2444.00
2023-02-25T11:16:45.099Z,2120.00
2023-02-25T11:17:45.026Z,1580.00
2023-02-25T11:18:44.959Z,1200.00
2023-02-25T11:19:44.894Z,908.00
2023-02-25T11:20:44.828Z,716.00
2023-02-25T11:21:44.777Z,696.00
2023-02-25T11:22:44.690Z,940.00
2023-02-25T11:23:44.624Z,972.00
2023-02-25T11:24:44.558Z,1084.00
2023-02-25T11:25:44.499Z,1244.00
2023-02-25T11:26:44.425Z,1620.00
2023-02-25T11:27:44.364Z,2084.00
2023-02-25T11:28:44.286Z,2432.00
2023-02-25T11:29:44.220Z,2700.00
2023-02-25T11:30:44.202Z,2928.00
2023-02-25T11:31:44.303Z,3060.00
2023-02-25T11:32:44.055Z,3184.00
2023-02-25T11:33:43.933Z,3320.00
2023-02-25T11:34:43.978Z,3520.00
2023-02-25T11:35:43.794Z,3604.00
2023-02-25T11:36:43.727Z,3740.00
2023-02-25T11:37:45.468Z,3676.00
2023-02-25T11:38:43.602Z,3600.00
2023-02-25T11:39:43.519Z,3604.00
2023-02-25T11:40:43.450Z,3584.00
2023-02-25T11:41:43.381Z,3508.00
2023-02-25T11:42:43.317Z,3412.00
2023-02-25T11:43:43.241Z,3368.00
2023-02-25T11:44:43.174Z,3316.00
2023-02-25T11:45:43.103Z,3204.00
2023-02-25T11:46:43.099Z,3148.00
2023-02-25T11:47:42.981Z,3192.00
2023-02-25T11:48:42.897Z,3268.00
2023-02-25T11:49:43.004Z,3396.00
2023-02-25T11:50:42.764Z,3480.00
2023-02-25T11:51:42.695Z,3476.00
2023-02-25T11:52:42.629Z,3456.00
2023-02-25T11:53:42.596Z,3364.00
2023-02-25T11:54:42.482Z,3184.00
2023-02-25T11:55:42.414Z,2580.00
2023-02-25T11:56:42.353Z,1820.00
2023-02-25T11:57:42.283Z,1328.00
2023-02-25T11:58:42.215Z,1180.00
2023-02-25T11:59:42.138Z,1316.00
2023-02-25T12:00:42.083Z,1680.00
2023-02-25T12:01:42.000Z,2184.00
2023-02-25T12:02:41.990Z,2548.00
2023-02-25T12:03:41.864Z,2752.00
2023-02-25T12:04:41.799Z,2900.00
2023-02-25T12:05:41.759Z,2960.00
2023-02-25T12:06:41.661Z,3056.00
2023-02-25T12:07:42.976Z,2960.00
2023-02-25T12:08:41.523Z,3016.00
2023-02-25T12:09:41.474Z,3072.00
2023-02-25T12:10:41.382Z,3160.00
2023-02-25T12:11:41.334Z,3204.00
2023-02-25T12:12:41.246Z,3252.00
2023-02-25T12:13:41.186Z,3336.00
2023-02-25T12:14:41.104Z,3392.00
2023-02-25T12:15:41.032Z,3388.00
2023-02-25T12:16:40.971Z,3352.00
2023-02-25T12:17:40.900Z,3352.00
2023-02-25T12:18:40.846Z,3296.00
2023-02-25T12:19:40.761Z,3176.00
2023-02-25T12:20:40.700Z,2856.00
2023-02-25T12:21:40.621Z,2596.00
2023-02-25T12:22:40.554Z,2304.00
2023-02-25T12:23:40.487Z,2224.00
2023-02-25T12:24:40.415Z,2288.00
2023-02-25T12:25:40.344Z,2060.00
2023-02-25T12:26:40.277Z,1812.00
2023-02-25T12:27:40.212Z,1684.00
2023-02-25T12:28:40.142Z,1816.00
2023-02-25T12:29:40.069Z,1812.00
2023-02-25T12:30:40.037Z,1744.00
2023-02-25T12:31:40.005Z,1880.00
2023-02-25T12:32:39.862Z,2068.00
2023-02-25T12:33:39.794Z,2208.00
2023-02-25T12:34:39.721Z,2260.00
2023-02-25T12:35:39.678Z,2304.00
2023-02-25T12:36:39.586Z,2312.00
2023-02-25T12:37:39.512Z,2292.00
2023-02-25T12:38:39.455Z,2264.00
2023-02-25T12:39:39.381Z,2244.00
2023-02-25T12:40:39.314Z,2264.00
2023-02-25T12:41:39.237Z,2280.00
2023-02-25T12:42:39.167Z,2288.00
2023-02-25T12:43:39.100Z,2424.00
2023-02-25T12:44:39.038Z,2664.00
2023-02-25T12:45:38.986Z,2908.00
2023-02-25T12:46:38.894Z,3052.00
2023-02-25T12:47:38.819Z,3136.00
2023-02-25T12:48:38.758Z,3216.00
2023-02-25T12:49:38.684Z,3228.00
2023-02-25T12:50:38.615Z,2988.00
2023-02-25T12:51:38.546Z,2624.00
2023-02-25T12:52:38.478Z,2184.00
2023-02-25T12:53:38.410Z,1716.00
2023-02-25T12:54:38.337Z,1204.00
2023-02-25T12:55:38.268Z,928.00
2023-02-25T12:56:38.208Z,912.00
2023-02-25T12:57:38.133Z,776.00
2023-02-25T12:58:38.061Z,780.00
2023-02-25T12:59:37.998Z,804.00
2023-02-25T13:00:37.931Z,904.00
2023-02-25T13:01:37.858Z,1320.00
2023-02-25T13:02:37.785Z,1504.00
2023-02-25T13:03:37.738Z,1704.00
2023-02-25T13:04:37.646Z,1788.00
2023-02-25T13:05:37.587Z,1700.00
2023-02-25T13:06:37.510Z,1552.00
2023-02-25T13:07:37.447Z,1768.00
2023-02-25T13:08:37.367Z,2044.00
2023-02-25T13:09:37.303Z,2312.00
2023-02-25T13:10:37.230Z,2460.00
2023-02-25T13:11:54.622Z,2568.00
2023-02-25T13:12:37.087Z,2648.00
2023-02-25T13:13:37.027Z,2708.00
2023-02-25T13:14:36.948Z,2732.00
2023-02-25T13:15:36.879Z,2720.00
2023-02-25T13:16:36.893Z,2580.00
2023-02-25T13:17:36.738Z,2772.00
2023-02-25T13:18:36.667Z,2796.00
2023-02-25T13:19:36.596Z,2760.00
2023-02-25T13:20:36.528Z,2800.00
2023-02-25T13:21:36.456Z,2788.00
2023-02-25T13:22:36.404Z,2868.00
2023-02-25T13:23:36.342Z,2780.00
2023-02-25T13:24:36.251Z,2796.00
2023-02-25T13:25:36.177Z,2776.00
2023-02-25T13:26:36.107Z,2632.00
2023-02-25T13:27:36.046Z,2484.00
2023-02-25T13:28:35.986Z,2596.00
2023-02-25T13:29:35.902Z,2736.00
2023-02-25T13:30:35.864Z,2828.00
2023-02-25T13:31:35.825Z,2744.00
2023-02-25T13:32:35.969Z,2560.00
2023-02-25T13:33:35.615Z,2356.00
2023-02-25T13:34:35.558Z,2080.00
2023-02-25T13:35:35.491Z,1916.00
2023-02-25T13:36:35.412Z,1772.00
2023-02-25T13:37:35.398Z,1544.00
2023-02-25T13:38:35.289Z,1304.00
2023-02-25T13:39:35.218Z,1124.00
2023-02-25T13:40:35.140Z,1228.00
2023-02-25T13:41:35.060Z,1492.00
2023-02-25T13:42:35.003Z,1728.00
2023-02-25T13:43:34.921Z,1924.00
2023-02-25T13:44:34.854Z,2240.00
2023-02-25T13:45:34.848Z,2348.00
2023-02-25T13:46:37.322Z,2292.00
2023-02-25T13:47:34.648Z,2208.00
2023-02-25T13:48:34.578Z,2100.00
2023-02-25T13:49:34.509Z,1920.00
2023-02-25T13:50:34.433Z,1756.00
2023-02-25T13:51:34.365Z,1592.00
2023-02-25T13:52:36.500Z,1388.00
2023-02-25T13:53:34.232Z,1360.00
2023-02-25T13:54:34.154Z,1180.00
2023-02-25T13:55:34.105Z,1444.00
2023-02-25T13:56:34.020Z,1772.00
2023-02-25T13:57:33.945Z,1984.00
2023-02-25T13:58:33.873Z,1952.00
2023-02-25T13:59:33.834Z,2012.00
2023-02-25T14:00:33.731Z,2064.00
2023-02-25T14:01:33.697Z,2068.00
2023-02-25T14:02:33.706Z,2032.00
2023-02-25T14:03:33.526Z,1988.00
2023-02-25T14:04:33.465Z,1960.00
2023-02-25T14:05:33.383Z,1976.00
2023-02-25T14:06:33.459Z,1968.00
2023-02-25T14:07:33.246Z,1960.00
2023-02-25T14:08:33.176Z,1952.00
2023-02-25T14:09:33.114Z,1932.00